Bismarck Municipal Airport
KBIS : rendu visible

Aérodrome :











RETROUVEZ-NOUS SUR...

 
LOGIN :

S'inscrire | Disclaimer

   EN    FR    IT 

 









Légende :    VFR   VFR Marginal   IFR   IFR Intensif   IFR Très Intensif
Visi : 
Plafond : 
>= 8 km
>= 3000ft
5 à 8 km
1000 à 3000 ft
1500m à 5 km
500 à 1000 ft
800 à 1500m
200 à 500 ft
< 800m
< 200 ft
Symboles :   Orages  Brouillard  Fortes neiges  Fortes précipitations  Vent > 20 kt






- Altitude de l'aérodrome : 1661 ft
- Code IATA : BIS


KBIS - Bismarck Municipal

DERNIER METAR :
  • 180252Z 35008KT 10SM CLR M07/M11 A3014 RMK AO2 SLP234 T10671106 53024

METARs EXPIRÉS :
  • 180152Z 33010KT 10SM CLR M06/M08 A3011 RMK AO2 SLP224 T10561083
  • 180052Z 30008KT 10SM CLR M04/M08 A3009 RMK AO2 SLP214 T10391078
  • 180035Z 31009KT 10SM SCT029 M03/M08 A3008 RMK AO2 T10331078
  • 180011Z 31008KT 10SM OVC029 M03/M08 A3007 RMK AO2 T10281078

TAF KBIS
Valide du 18 à 00h jusqu'au 19 à 00h UTC


172320Z 1800/1824 33008KT P6SM FEW015 SCT025 OVC035
FM180200 33006KT P6SM BKN035
FM180800 VRB03KT P6SM VCSH OVC025
FM181300 34010KT P6SM BKN045



MET'MAP, la Météo Aéronautique d'un coup d'oeil ! - Copyright ORBIFLY Décembre 2007 - Disclaimer

ORBIFLY MET'MAP TEAM :

Programmation & Développement : Alexandra Zaïnal
Sur une idée originale de : Baudouin d'Aumeries
Assistance à la programmation : Marc-Olivier Méhu
Soutien technique & logistique : Manuel Goepfert

Contact : metmap@orbifly.com




SOURCES & CREDITS :

   NOAA       Earth
Advisory